Station Historical Data
Daily Summary for May 4, 2012 Units:  Both    English   Metric
« Previous Day
Next Day »
Daily Weekly Monthly Yearly Custom
  High: Low: Average:
Temperature: 83.2 °F /  28.4 °C 65.4 °F /  18.6 °C 72.8 °F /  22.7 °C
Dew Point: 72.5 °F /  22.5 °C 63.6 °F /  17.6 °C 67.8 °F /  19.9 °C
Humidity: 94% 63% 85%
Wind Speed: 7.0mph /  11.3km/h - 3.3mph /  5.3km/h
Wind Gust: 10.0mph /  16.1km/h - -
Wind- - South
Pressure: 30.06 in /  1017.8 hPa 29.92 in /  1013.1 hPa -
Precipitation: 0.01 in /  0.25 mm    
Historical Graphs
 
 
Tabular Data for May 4, 2012
Time Temperature Dew Point Pressure Wind Wind Speed Wind Gust Humidity Rainfall Rate (Hourly) Conditions
00:00 66.8 °F /  19.3 °C 64.7 °F /  18.2 °C 30.00in /  1015.8hPa SE 2.0mph /  3.2km/h 5.0mph /  8km/h 93% 0.00in /  0mm
00:01 66.8 °F /  19.3 °C 64.7 °F /  18.2 °C 30.00in /  1015.8hPa SSE 3.0mph /  4.8km/h 4.0mph /  6.4km/h 93% 0.00in /  0mm
00:06 66.8 °F /  19.3 °C 64.7 °F /  18.2 °C 30.00in /  1015.8hPa SSE 4.0mph /  6.4km/h 5.0mph /  8km/h 93% 0.00in /  0mm
00:09 66.7 °F /  19.3 °C 64.6 °F /  18.1 °C 30.00in /  1015.8hPa SE 3.0mph /  4.8km/h 5.0mph /  8km/h 93% 0.00in /  0mm
00:15 66.7 °F /  19.3 °C 64.6 °F /  18.1 °C 30.00in /  1015.8hPa SE 4.0mph /  6.4km/h 5.0mph /  8km/h 93% 0.00in /  0mm
00:20 66.7 °F /  19.3 °C 64.6 °F /  18.1 °C 30.00in /  1015.8hPa SSE 4.0mph /  6.4km/h 4.0mph /  6.4km/h 93% 0.00in /  0mm
00:25 66.6 °F /  19.2 °C 64.5 °F /  18.1 °C 30.00in /  1015.8hPa SE 4.0mph /  6.4km/h 4.0mph /  6.4km/h 93% 0.00in /  0mm
00:30 66.6 °F /  19.2 °C 64.5 °F /  18.1 °C 30.01in /  1016.1hPa SE 2.0mph /  3.2km/h 4.0mph /  6.4km/h 93% 0.00in /  0mm
00:35 66.6 °F /  19.2 °C 64.5 °F /  18.1 °C 30.00in /  1015.8hPa ESE 6.0mph /  9.7km/h 6.0mph /  9.7km/h 93% 0.00in /  0mm
00:40 66.5 °F /  19.2 °C 64.7 °F /  18.2 °C 30.00in /  1015.8hPa SE 5.0mph /  8km/h 5.0mph /  8km/h 94% 0.00in /  0mm
00:45 66.5 °F /  19.2 °C 64.7 °F /  18.2 °C 30.00in /  1015.8hPa SSE 5.0mph /  8km/h 6.0mph /  9.7km/h 94% 0.00in /  0mm
00:50 66.4 °F /  19.1 °C 64.6 °F /  18.1 °C 30.00in /  1015.8hPa ESE 5.0mph /  8km/h 5.0mph /  8km/h 94% 0.00in /  0mm
00:55 66.4 °F /  19.1 °C 64.6 °F /  18.1 °C 29.99in /  1015.5hPa SE 5.0mph /  8km/h 5.0mph /  8km/h 94% 0.00in /  0mm
01:00 66.3 °F /  19.1 °C 64.5 °F /  18.1 °C 29.99in /  1015.5hPa SE 5.0mph /  8km/h 7.0mph /  11.3km/h 94% 0.00in /  0mm
01:05 66.4 °F /  19.1 °C 64.6 °F /  18.1 °C 29.99in /  1015.5hPa SE 4.0mph /  6.4km/h 5.0mph /  8km/h 94% 0.00in /  0mm
01:10 66.4 °F /  19.1 °C 64.6 °F /  18.1 °C 29.99in /  1015.5hPa SE 2.0mph /  3.2km/h 5.0mph /  8km/h 94% 0.00in /  0mm
01:15 66.3 °F /  19.1 °C 64.5 °F /  18.1 °C 29.99in /  1015.5hPa ESE 3.0mph /  4.8km/h 5.0mph /  8km/h 94% 0.00in /  0mm
01:20 66.3 °F /  19.1 °C 64.5 °F /  18.1 °C 29.99in /  1015.5hPa SE 4.0mph /  6.4km/h 5.0mph /  8km/h 94% 0.00in /  0mm
01:25 66.4 °F /  19.1 °C 64.6 °F /  18.1 °C 29.99in /  1015.5hPa SE 4.0mph /  6.4km/h 6.0mph /  9.7km/h 94% 0.00in /  0mm
01:30 66.5 °F /  19.2 °C 64.7 °F /  18.2 °C 29.99in /  1015.5hPa SE 3.0mph /  4.8km/h 6.0mph /  9.7km/h 94% 0.00in /  0mm
01:35 66.6 °F /  19.2 °C 64.8 °F /  18.2 °C 29.99in /  1015.5hPa SE 4.0mph /  6.4km/h 8.0mph /  12.9km/h 94% 0.00in /  0mm
01:40 66.7 °F /  19.3 °C 64.9 °F /  18.3 °C 29.99in /  1015.5hPa SE 6.0mph /  9.7km/h 9.0mph /  14.5km/h 94% 0.00in /  0mm
01:45 66.8 °F /  19.3 °C 65.0 °F /  18.3 °C 29.99in /  1015.5hPa SE 5.0mph /  8km/h 9.0mph /  14.5km/h 94% 0.00in /  0mm
01:50 66.8 °F /  19.3 °C 65.0 °F /  18.3 °C 29.99in /  1015.5hPa South 5.0mph /  8km/h 7.0mph /  11.3km/h 94% 0.00in /  0mm
01:55 66.9 °F /  19.4 °C 65.1 °F /  18.4 °C 29.99in /  1015.5hPa SSE 5.0mph /  8km/h 7.0mph /  11.3km/h 94% 0.00in /  0mm
02:00 66.9 °F /  19.4 °C 65.1 °F /  18.4 °C 29.99in /  1015.5hPa SSW 4.0mph /  6.4km/h 8.0mph /  12.9km/h 94% 0.00in /  0mm
02:05 66.9 °F /  19.4 °C 65.1 °F /  18.4 °C 29.99in /  1015.5hPa SSE 5.0mph /  8km/h 8.0mph /  12.9km/h 94% 0.00in /  0mm
02:10 66.9 °F /  19.4 °C 65.1 °F /  18.4 °C 30.00in /  1015.8hPa ESE 3.0mph /  4.8km/h 6.0mph /  9.7km/h 94% 0.00in /  0mm
02:15 66.9 °F /  19.4 °C 65.1 °F /  18.4 °C 29.99in /  1015.5hPa SE 4.0mph /  6.4km/h 8.0mph /  12.9km/h 94% 0.00in /  0mm
02:20 66.9 °F /  19.4 °C 65.1 °F /  18.4 °C 29.99in /  1015.5hPa SE 4.0mph /  6.4km/h 6.0mph /  9.7km/h 94% 0.00in /  0mm
02:25 66.9 °F /  19.4 °C 65.1 °F /  18.4 °C 29.99in /  1015.5hPa SSW 5.0mph /  8km/h 7.0mph /  11.3km/h 94% 0.00in /  0mm
02:30 66.9 °F /  19.4 °C 65.1 °F /  18.4 °C 29.99in /  1015.5hPa SSE 5.0mph /  8km/h 6.0mph /  9.7km/h 94% 0.00in /  0mm
02:35 66.9 °F /  19.4 °C 65.1 °F /  18.4 °C 29.99in /  1015.5hPa SSE 7.0mph /  11.3km/h 9.0mph /  14.5km/h 94% 0.00in /  0mm
02:41 66.8 °F /  19.3 °C 65.0 °F /  18.3 °C 29.99in /  1015.5hPa SSE 7.0mph /  11.3km/h 7.0mph /  11.3km/h 94% 0.00in /  0mm
02:46 66.8 °F /  19.3 °C 65.0 °F /  18.3 °C 29.98in /  1015.1hPa South 3.0mph /  4.8km/h 6.0mph /  9.7km/h 94% 0.00in /  0mm
02:51 66.8 °F /  19.3 °C 65.0 °F /  18.3 °C 29.98in /  1015.1hPa SE 3.0mph /  4.8km/h 7.0mph /  11.3km/h 94% 0.00in /  0mm
02:56 66.8 °F /  19.3 °C 65.0 °F /  18.3 °C 29.98in /  1015.1hPa SE 6.0mph /  9.7km/h 6.0mph /  9.7km/h 94% 0.00in /  0mm
03:01 66.7 °F /  19.3 °C 64.9 °F /  18.3 °C 29.98in /  1015.1hPa SSE 4.0mph /  6.4km/h 7.0mph /  11.3km/h 94% 0.00in /  0mm
03:06 66.7 °F /  19.3 °C 64.9 °F /  18.3 °C 29.98in /  1015.1hPa SE 3.0mph /  4.8km/h 7.0mph /  11.3km/h 94% 0.00in /  0mm
03:11 66.6 °F /  19.2 °C 64.8 °F /  18.2 °C 29.98in /  1015.1hPa South 6.0mph /  9.7km/h 9.0mph /  14.5km/h 94% 0.00in /  0mm
03:16 66.6 °F /  19.2 °C 64.8 °F /  18.2 °C 29.98in /  1015.1hPa SE 6.0mph /  9.7km/h 8.0mph /  12.9km/h 94% 0.00in /  0mm
03:21 66.5 °F /  19.2 °C 64.7 °F /  18.2 °C 29.98in /  1015.1hPa SE 7.0mph /  11.3km/h 7.0mph /  11.3km/h 94% 0.00in /  0mm
03:26 66.5 °F /  19.2 °C 64.7 °F /  18.2 °C 29.98in /  1015.1hPa SSE 2.0mph /  3.2km/h 6.0mph /  9.7km/h 94% 0.00in /  0mm
03:31 66.5 °F /  19.2 °C 64.7 °F /  18.2 °C 29.98in /  1015.1hPa South 3.0mph /  4.8km/h 7.0mph /  11.3km/h 94% 0.00in /  0mm
03:36 66.4 °F /  19.1 °C 64.6 °F /  18.1 °C 29.98in /  1015.1hPa SW 4.0mph /  6.4km/h 5.0mph /  8km/h 94% 0.00in /  0mm
03:41 66.4 °F /  19.1 °C 64.6 °F /  18.1 °C 29.98in /  1015.1hPa SSE 3.0mph /  4.8km/h 4.0mph /  6.4km/h 94% 0.00in /  0mm
03:46 66.3 °F /  19.1 °C 64.5 °F /  18.1 °C 29.98in /  1015.1hPa SE 2.0mph /  3.2km/h 6.0mph /  9.7km/h 94% 0.00in /  0mm
03:51 66.3 °F /  19.1 °C 64.5 °F /  18.1 °C 29.98in /  1015.1hPa SE 3.0mph /  4.8km/h 5.0mph /  8km/h 94% 0.00in /  0mm
03:56 66.2 °F /  19 °C 64.4 °F /  18 °C 29.98in /  1015.1hPa SE 3.0mph /  4.8km/h 5.0mph /  8km/h 94% 0.00in /  0mm
04:01 66.1 °F /  18.9 °C 64.3 °F /  17.9 °C 29.98in /  1015.1hPa SE 5.0mph /  8km/h 6.0mph /  9.7km/h 94% 0.00in /  0mm
04:06 66.1 °F /  18.9 °C 64.3 °F /  17.9 °C 29.98in /  1015.1hPa SE 3.0mph /  4.8km/h 5.0mph /  8km/h 94% 0.00in /  0mm
04:11 66.2 °F /  19 °C 64.4 °F /  18 °C 29.98in /  1015.1hPa SSE 1.0mph /  1.6km/h 5.0mph /  8km/h 94% 0.00in /  0mm
04:16 66.2 °F /  19 °C 64.4 °F /  18 °C 29.99in /  1015.5hPa SSE 2.0mph /  3.2km/h 2.0mph /  3.2km/h 94% 0.00in /  0mm
04:21 66.2 °F /  19 °C 64.4 °F /  18 °C 29.99in /  1015.5hPa SE 3.0mph /  4.8km/h 4.0mph /  6.4km/h 94% 0.00in /  0mm
04:27 66.1 °F /  18.9 °C 64.3 °F /  17.9 °C 29.99in /  1015.5hPa SE 3.0mph /  4.8km/h 4.0mph /  6.4km/h 94% 0.00in /  0mm
04:32 66.1 °F /  18.9 °C 64.3 °F /  17.9 °C 29.99in /  1015.5hPa ESE 2.0mph /  3.2km/h 4.0mph /  6.4km/h 94% 0.00in /  0mm
04:37 66.0 °F /  18.9 °C 64.2 °F /  17.9 °C 29.99in /  1015.5hPa SE 3.0mph /  4.8km/h 4.0mph /  6.4km/h 94% 0.00in /  0mm
04:42 66.0 °F /  18.9 °C 64.2 °F /  17.9 °C 29.99in /  1015.5hPa SE 4.0mph /  6.4km/h 4.0mph /  6.4km/h 94% 0.00in /  0mm
04:47 65.9 °F /  18.8 °C 64.1 °F /  17.8 °C 30.00in /  1015.8hPa SE 3.0mph /  4.8km/h 5.0mph /  8km/h 94% 0.00in /  0mm
04:52 65.8 °F /  18.8 °C 64.0 °F /  17.8 °C 30.00in /  1015.8hPa ESE 2.0mph /  3.2km/h 3.0mph /  4.8km/h 94% 0.00in /  0mm
04:57 65.8 °F /  18.8 °C 64.0 °F /  17.8 °C 30.00in /  1015.8hPa SE 2.0mph /  3.2km/h 4.0mph /  6.4km/h 94% 0.00in /  0mm
05:02 65.8 °F /  18.8 °C 64.0 °F /  17.8 °C 30.00in /  1015.8hPa SE 3.0mph /  4.8km/h 5.0mph /  8km/h 94% 0.00in /  0mm
05:07 65.6 °F /  18.7 °C 63.8 °F /  17.7 °C 30.00in /  1015.8hPa SE 2.0mph /  3.2km/h 3.0mph /  4.8km/h 94% 0.00in /  0mm
05:12 65.5 °F /  18.6 °C 63.7 °F /  17.6 °C 30.00in /  1015.8hPa ESE 1.0mph /  1.6km/h 2.0mph /  3.2km/h 94% 0.00in /  0mm
05:17 65.4 °F /  18.6 °C 63.6 °F /  17.6 °C 30.00in /  1015.8hPa ESE 1.0mph /  1.6km/h 3.0mph /  4.8km/h 94% 0.00in /  0mm
05:22 65.4 °F /  18.6 °C 63.6 °F /  17.6 °C 30.00in /  1015.8hPa ESE 1.0mph /  1.6km/h 2.0mph /  3.2km/h 94% 0.00in /  0mm
05:27 65.4 °F /  18.6 °C 63.6 °F /  17.6 °C 30.00in /  1015.8hPa ESE 2.0mph /  3.2km/h 3.0mph /  4.8km/h 94% 0.00in /  0mm
05:32 65.4 °F /  18.6 °C 63.6 °F /  17.6 °C 30.00in /  1015.8hPa ESE 1.0mph /  1.6km/h 2.0mph /  3.2km/h 94% 0.00in /  0mm
05:37 65.5 °F /  18.6 °C 63.7 °F /  17.6 °C 30.00in /  1015.8hPa ESE 2.0mph /  3.2km/h 3.0mph /  4.8km/h 94% 0.00in /  0mm
05:42 65.6 °F /  18.7 °C 63.8 °F /  17.7 °C 30.00in /  1015.8hPa SE 2.0mph /  3.2km/h 3.0mph /  4.8km/h 94% 0.00in /  0mm
05:47 65.6 °F /  18.7 °C 63.8 °F /  17.7 °C 30.00in /  1015.8hPa SE 4.0mph /  6.4km/h 4.0mph /  6.4km/h 94% 0.00in /  0mm
05:52 65.7 °F /  18.7 °C 63.9 °F /  17.7 °C 30.00in /  1015.8hPa ESE 4.0mph /  6.4km/h 5.0mph /  8km/h 94% 0.00in /  0mm
05:57 65.8 °F /  18.8 °C 64.0 °F /  17.8 °C 30.00in /  1015.8hPa ESE 3.0mph /  4.8km/h 5.0mph /  8km/h 94% 0.00in /  0mm
06:02 65.9 °F /  18.8 °C 64.1 °F /  17.8 °C 30.00in /  1015.8hPa SE 3.0mph /  4.8km/h 4.0mph /  6.4km/h 94% 0.00in /  0mm
06:07 65.9 °F /  18.8 °C 64.1 °F /  17.8 °C 30.00in /  1015.8hPa ESE 4.0mph /  6.4km/h 4.0mph /  6.4km/h 94% 0.00in /  0mm
06:12 65.9 °F /  18.8 °C 64.1 °F /  17.8 °C 29.99in /  1015.5hPa SE 3.0mph /  4.8km/h 6.0mph /  9.7km/h 94% 0.00in /  0mm
06:17 65.9 °F /  18.8 °C 64.1 °F /  17.8 °C 30.00in /  1015.8hPa ESE 4.0mph /  6.4km/h 5.0mph /  8km/h 94% 0.00in /  0mm
06:22 66.0 °F /  18.9 °C 64.2 °F /  17.9 °C 30.00in /  1015.8hPa SSE 4.0mph /  6.4km/h 5.0mph /  8km/h 94% 0.00in /  0mm
06:27 65.9 °F /  18.8 °C 64.1 °F /  17.8 °C 30.01in /  1016.1hPa SE 3.0mph /  4.8km/h 4.0mph /  6.4km/h 94% 0.00in /  0mm
06:32 65.9 °F /  18.8 °C 64.1 °F /  17.8 °C 30.01in /  1016.1hPa SE 2.0mph /  3.2km/h 4.0mph /  6.4km/h 94% 0.00in /  0mm
06:37 65.9 °F /  18.8 °C 64.1 °F /  17.8 °C 30.02in /  1016.5hPa SE 2.0mph /  3.2km/h 3.0mph /  4.8km/h 94% 0.00in /  0mm
06:43 65.9 °F /  18.8 °C 64.1 °F /  17.8 °C 30.02in /  1016.5hPa ESE 3.0mph /  4.8km/h 4.0mph /  6.4km/h 94% 0.00in /  0mm
06:48 66.0 °F /  18.9 °C 64.2 °F /  17.9 °C 30.02in /  1016.5hPa ESE 2.0mph /  3.2km/h 4.0mph /  6.4km/h 94% 0.00in /  0mm
06:53 66.0 °F /  18.9 °C 64.2 °F /  17.9 °C 30.02in /  1016.5hPa ESE 2.0mph /  3.2km/h 3.0mph /  4.8km/h 94% 0.00in /  0mm
06:58 66.0 °F /  18.9 °C 64.2 °F /  17.9 °C 30.03in /  1016.8hPa SE 3.0mph /  4.8km/h 3.0mph /  4.8km/h 94% 0.00in /  0mm
07:03 66.0 °F /  18.9 °C 64.2 °F /  17.9 °C 30.03in /  1016.8hPa ESE 2.0mph /  3.2km/h 3.0mph /  4.8km/h 94% 0.00in /  0mm
07:08 66.1 °F /  18.9 °C 64.3 °F /  17.9 °C 30.03in /  1016.8hPa SE 3.0mph /  4.8km/h 3.0mph /  4.8km/h 94% 0.00in /  0mm
07:13 66.1 °F /  18.9 °C 64.3 °F /  17.9 °C 30.03in /  1016.8hPa ESE 2.0mph /  3.2km/h 3.0mph /  4.8km/h 94% 0.00in /  0mm
07:18 66.1 °F /  18.9 °C 64.3 °F /  17.9 °C 30.03in /  1016.8hPa SE 2.0mph /  3.2km/h 3.0mph /  4.8km/h 94% 0.00in /  0mm
07:23 66.1 °F /  18.9 °C 64.3 °F /  17.9 °C 30.04in /  1017.2hPa East 2.0mph /  3.2km/h 3.0mph /  4.8km/h 94% 0.00in /  0mm
07:28 66.2 °F /  19 °C 64.4 °F /  18 °C 30.04in /  1017.2hPa ESE 2.0mph /  3.2km/h 2.0mph /  3.2km/h 94% 0.00in /  0mm
07:33 66.2 °F /  19 °C 64.4 °F /  18 °C 30.04in /  1017.2hPa SE 3.0mph /  4.8km/h 3.0mph /  4.8km/h 94% 0.00in /  0mm
07:38 66.3 °F /  19.1 °C 64.5 °F /  18.1 °C 30.04in /  1017.2hPa SE 2.0mph /  3.2km/h 4.0mph /  6.4km/h 94% 0.00in /  0mm
07:43 66.4 °F /  19.1 °C 64.6 °F /  18.1 °C 30.04in /  1017.2hPa ESE 4.0mph /  6.4km/h 4.0mph /  6.4km/h 94% 0.00in /  0mm
07:48 66.4 °F /  19.1 °C 64.6 °F /  18.1 °C 30.04in /  1017.2hPa SE 3.0mph /  4.8km/h 3.0mph /  4.8km/h 94% 0.00in /  0mm
07:53 66.4 °F /  19.1 °C 64.6 °F /  18.1 °C 30.04in /  1017.2hPa SE 3.0mph /  4.8km/h 3.0mph /  4.8km/h 94% 0.00in /  0mm
07:58 66.6 °F /  19.2 °C 64.8 °F /  18.2 °C 30.04in /  1017.2hPa SE 3.0mph /  4.8km/h 3.0mph /  4.8km/h 94% 0.00in /  0mm
08:03 66.6 °F /  19.2 °C 64.8 °F /  18.2 °C 30.04in /  1017.2hPa SE 3.0mph /  4.8km/h 5.0mph /  8km/h 94% 0.00in /  0mm
08:08 66.8 °F /  19.3 °C 65.0 °F /  18.3 °C 30.04in /  1017.2hPa SE 5.0mph /  8km/h 5.0mph /  8km/h 94% 0.00in /  0mm
08:13 67.0 °F /  19.4 °C 65.2 °F /  18.4 °C 30.04in /  1017.2hPa SSW 2.0mph /  3.2km/h 5.0mph /  8km/h 94% 0.00in /  0mm
08:18 67.1 °F /  19.5 °C 65.3 °F /  18.5 °C 30.03in /  1016.8hPa SSE 4.0mph /  6.4km/h 6.0mph /  9.7km/h 94% 0.00in /  0mm
08:23 67.2 °F /  19.6 °C 65.4 °F /  18.6 °C 30.04in /  1017.2hPa SE 5.0mph /  8km/h 7.0mph /  11.3km/h 94% 0.00in /  0mm
08:28 67.3 °F /  19.6 °C 65.5 °F /  18.6 °C 30.03in /  1016.8hPa SSE 4.0mph /  6.4km/h 7.0mph /  11.3km/h 94% 0.00in /  0mm
08:33 67.5 °F /  19.7 °C 65.7 °F /  18.7 °C 30.03in /  1016.8hPa SSE 5.0mph /  8km/h 7.0mph /  11.3km/h 94% 0.00in /  0mm
08:38 67.7 °F /  19.8 °C 65.9 °F /  18.8 °C 30.03in /  1016.8hPa SSE 4.0mph /  6.4km/h 7.0mph /  11.3km/h 94% 0.00in /  0mm
08:43 67.8 °F /  19.9 °C 66.0 °F /  18.9 °C 30.03in /  1016.8hPa South 3.0mph /  4.8km/h 8.0mph /  12.9km/h 94% 0.00in /  0mm
08:48 67.9 °F /  19.9 °C 66.1 °F /  18.9 °C 30.03in /  1016.8hPa SSE 6.0mph /  9.7km/h 9.0mph /  14.5km/h 94% 0.00in /  0mm
08:54 68.2 °F /  20.1 °C 66.1 °F /  18.9 °C 30.03in /  1016.8hPa SSW 5.0mph /  8km/h 9.0mph /  14.5km/h 93% 0.00in /  0mm
08:59 68.4 °F /  20.2 °C 66.3 °F /  19.1 °C 30.03in /  1016.8hPa South 7.0mph /  11.3km/h 8.0mph /  12.9km/h 93% 0.00in /  0mm
09:04 68.5 °F /  20.3 °C 66.4 °F /  19.1 °C 30.03in /  1016.8hPa SSW 5.0mph /  8km/h 8.0mph /  12.9km/h 93% 0.00in /  0mm
09:09 68.6 °F /  20.3 °C 66.5 °F /  19.2 °C 30.03in /  1016.8hPa South 2.0mph /  3.2km/h 8.0mph /  12.9km/h 93% 0.00in /  0mm
09:14 68.7 °F /  20.4 °C 66.6 °F /  19.2 °C 30.03in /  1016.8hPa SW 3.0mph /  4.8km/h 6.0mph /  9.7km/h 93% 0.00in /  0mm
09:19 68.6 °F /  20.3 °C 66.5 °F /  19.2 °C 30.04in /  1017.2hPa SW 5.0mph /  8km/h 9.0mph /  14.5km/h 93% 0.00in /  0mm
09:25 68.7 °F /  20.4 °C 66.6 °F /  19.2 °C 30.04in /  1017.2hPa SW 4.0mph /  6.4km/h 6.0mph /  9.7km/h 93% 0.00in /  0mm
09:30 68.8 °F /  20.4 °C 66.7 °F /  19.3 °C 30.04in /  1017.2hPa South 3.0mph /  4.8km/h 9.0mph /  14.5km/h 93% 0.00in /  0mm
09:35 68.9 °F /  20.5 °C 66.8 °F /  19.3 °C 30.04in /  1017.2hPa SSW 4.0mph /  6.4km/h 6.0mph /  9.7km/h 93% 0.00in /  0mm
09:40 68.8 °F /  20.4 °C 66.7 °F /  19.3 °C 30.05in /  1017.5hPa SSE 4.0mph /  6.4km/h 10.0mph /  16.1km/h 93% 0.00in /  0mm
09:45 68.9 °F /  20.5 °C 66.8 °F /  19.3 °C 30.05in /  1017.5hPa South 3.0mph /  4.8km/h 7.0mph /  11.3km/h 93% 0.00in /  0mm
09:50 68.9 °F /  20.5 °C 66.8 °F /  19.3 °C 30.05in /  1017.5hPa WSW 4.0mph /  6.4km/h 7.0mph /  11.3km/h 93% 0.00in /  0mm
09:55 68.8 °F /  20.4 °C 66.7 °F /  19.3 °C 30.05in /  1017.5hPa SW 4.0mph /  6.4km/h 8.0mph /  12.9km/h 93% 0.00in /  0mm
10:00 68.8 °F /  20.4 °C 66.7 °F /  19.3 °C 30.06in /  1017.8hPa SW 5.0mph /  8km/h 6.0mph /  9.7km/h 93% 0.00in /  0mm
10:05 68.8 °F /  20.4 °C 66.7 °F /  19.3 °C 30.05in /  1017.5hPa SSW 4.0mph /  6.4km/h 6.0mph /  9.7km/h 93% 0.00in /  0mm
10:10 68.9 °F /  20.5 °C 66.8 °F /  19.3 °C 30.05in /  1017.5hPa SSW 2.0mph /  3.2km/h 5.0mph /  8km/h 93% 0.00in /  0mm
10:15 69.0 °F /  20.6 °C 66.9 °F /  19.4 °C 30.05in /  1017.5hPa SE 3.0mph /  4.8km/h 5.0mph /  8km/h 93% 0.00in /  0mm
10:20 69.2 °F /  20.7 °C 67.1 °F /  19.5 °C 30.05in /  1017.5hPa SSE 5.0mph /  8km/h 5.0mph /  8km/h 93% 0.00in /  0mm
10:24 69.3 °F /  20.7 °C 67.2 °F /  19.6 °C 30.05in /  1017.5hPa SE 2.0mph /  3.2km/h 6.0mph /  9.7km/h 93% 0.00in /  0mm
10:29 69.5 °F /  20.8 °C 67.1 °F /  19.5 °C 30.05in /  1017.5hPa SW 3.0mph /  4.8km/h 6.0mph /  9.7km/h 92% 0.00in /  0mm
10:34 69.6 °F /  20.9 °C 67.2 °F /  19.6 °C 30.05in /  1017.5hPa SSW 2.0mph /  3.2km/h 5.0mph /  8km/h 92% 0.00in /  0mm
10:39 69.6 °F /  20.9 °C 67.2 °F /  19.6 °C 30.05in /  1017.5hPa SSW 5.0mph /  8km/h 6.0mph /  9.7km/h 92% 0.00in /  0mm
10:44 69.6 °F /  20.9 °C 67.2 °F /  19.6 °C 30.06in /  1017.8hPa SW 5.0mph /  8km/h 7.0mph /  11.3km/h 92% 0.00in /  0mm
10:49 69.6 °F /  20.9 °C 67.2 °F /  19.6 °C 30.05in /  1017.5hPa SW 5.0mph /  8km/h 8.0mph /  12.9km/h 92% 0.00in /  0mm
10:54 69.6 °F /  20.9 °C 67.2 °F /  19.6 °C 30.05in /  1017.5hPa WSW 3.0mph /  4.8km/h 6.0mph /  9.7km/h 92% 0.00in /  0mm
10:59 69.7 °F /  20.9 °C 67.3 °F /  19.6 °C 30.05in /  1017.5hPa SSW 5.0mph /  8km/h 6.0mph /  9.7km/h 92% 0.00in /  0mm
11:04 69.8 °F /  21 °C 67.4 °F /  19.7 °C 30.05in /  1017.5hPa SSW 2.0mph /  3.2km/h 6.0mph /  9.7km/h 92% 0.00in /  0mm
11:09 70.2 °F /  21.2 °C 67.4 °F /  19.7 °C 30.05in /  1017.5hPa SW 4.0mph /  6.4km/h 5.0mph /  8km/h 91% 0.00in /  0mm
11:14 70.7 °F /  21.5 °C 68.3 °F /  20.2 °C 30.05in /  1017.5hPa SSE 6.0mph /  9.7km/h 8.0mph /  12.9km/h 92% 0.00in /  0mm
11:19 71.0 °F /  21.7 °C 68.2 °F /  20.1 °C 30.05in /  1017.5hPa SE 3.0mph /  4.8km/h 9.0mph /  14.5km/h 91% 0.00in /  0mm
11:24 71.4 °F /  21.9 °C 68.3 °F /  20.2 °C 30.05in /  1017.5hPa SSW 3.0mph /  4.8km/h 6.0mph /  9.7km/h 90% 0.00in /  0mm
11:30 71.6 °F /  22 °C 68.5 °F /  20.3 °C 30.05in /  1017.5hPa SE 4.0mph /  6.4km/h 6.0mph /  9.7km/h 90% 0.00in /  0mm
11:35 71.8 °F /  22.1 °C 68.7 °F /  20.4 °C 30.05in /  1017.5hPa SSE 6.0mph /  9.7km/h 6.0mph /  9.7km/h 90% 0.00in /  0mm
11:40 72.0 °F /  22.2 °C 68.6 °F /  20.3 °C 30.05in /  1017.5hPa ESE 3.0mph /  4.8km/h 6.0mph /  9.7km/h 89% 0.00in /  0mm
11:45 72.1 °F /  22.3 °C 68.7 °F /  20.4 °C 30.05in /  1017.5hPa SSE 6.0mph /  9.7km/h 7.0mph /  11.3km/h 89% 0.00in /  0mm
11:50 72.5 °F /  22.5 °C 69.1 °F /  20.6 °C 30.04in /  1017.2hPa West 2.0mph /  3.2km/h 5.0mph /  8km/h 89% 0.00in /  0mm
11:55 73.1 °F /  22.8 °C 69.3 °F /  20.7 °C 30.04in /  1017.2hPa South 4.0mph /  6.4km/h 7.0mph /  11.3km/h 88% 0.00in /  0mm
12:00 73.4 °F /  23 °C 69.6 °F /  20.9 °C 30.04in /  1017.2hPa SE 3.0mph /  4.8km/h 3.0mph /  4.8km/h 88% 0.00in /  0mm
12:05 74.1 °F /  23.4 °C 70.0 °F /  21.1 °C 30.04in /  1017.2hPa SE 4.0mph /  6.4km/h 6.0mph /  9.7km/h 87% 0.00in /  0mm
12:10 74.6 °F /  23.7 °C 69.8 °F /  21 °C 30.03in /  1016.8hPa SSW 3.0mph /  4.8km/h 6.0mph /  9.7km/h 85% 0.00in /  0mm
12:15 75.2 °F /  24 °C 70.4 °F /  21.3 °C 30.03in /  1016.8hPa SE 3.0mph /  4.8km/h 7.0mph /  11.3km/h 85% 0.00in /  0mm
12:20 75.5 °F /  24.2 °C 70.3 °F /  21.3 °C 30.03in /  1016.8hPa SSE 2.0mph /  3.2km/h 4.0mph /  6.4km/h 84% 0.00in /  0mm
12:25 75.5 °F /  24.2 °C 69.6 °F /  20.9 °C 30.03in /  1016.8hPa WSW 4.0mph /  6.4km/h 7.0mph /  11.3km/h 82% 0.00in /  0mm
12:30 75.6 °F /  24.2 °C 70.1 °F /  21.2 °C 30.03in /  1016.8hPa West 3.0mph /  4.8km/h 6.0mph /  9.7km/h 83% 0.00in /  0mm
12:35 75.7 °F /  24.3 °C 70.5 °F /  21.4 °C 30.03in /  1016.8hPa SW 5.0mph /  8km/h 8.0mph /  12.9km/h 84% 0.00in /  0mm
12:41 76.0 °F /  24.4 °C 70.1 °F /  21.2 °C 30.03in /  1016.8hPa West 7.0mph /  11.3km/h 7.0mph /  11.3km/h 82% 0.00in /  0mm
12:46 76.0 °F /  24.4 °C 70.5 °F /  21.4 °C 30.03in /  1016.8hPa SW 4.0mph /  6.4km/h 6.0mph /  9.7km/h 83% 0.00in /  0mm
12:51 75.9 °F /  24.4 °C 70.0 °F /  21.1 °C 30.02in /  1016.5hPa WNW 6.0mph /  9.7km/h 7.0mph /  11.3km/h 82% 0.00in /  0mm
12:56 75.9 °F /  24.4 °C 70.7 °F /  21.5 °C 30.03in /  1016.8hPa WSW 7.0mph /  11.3km/h 8.0mph /  12.9km/h 84% 0.00in /  0mm
13:01 76.4 °F /  24.7 °C 70.5 °F /  21.4 °C 30.03in /  1016.8hPa WNW 2.0mph /  3.2km/h 3.0mph /  4.8km/h 82% 0.00in /  0mm
13:06 76.6 °F /  24.8 °C 70.7 °F /  21.5 °C 30.03in /  1016.8hPa Calm   4.0mph /  6.4km/h 82% 0.00in /  0mm
13:12 77.1 °F /  25.1 °C 70.5 °F /  21.4 °C 30.03in /  1016.8hPa NW 3.0mph /  4.8km/h 6.0mph /  9.7km/h 80% 0.00in /  0mm
13:17 77.0 °F /  25 °C 70.7 °F /  21.5 °C 30.03in /  1016.8hPa West 4.0mph /  6.4km/h 6.0mph /  9.7km/h 81% 0.00in /  0mm
13:22 77.0 °F /  25 °C 70.7 °F /  21.5 °C 30.04in /  1017.2hPa WNW 3.0mph /  4.8km/h 6.0mph /  9.7km/h 81% 0.00in /  0mm
13:27 76.8 °F /  24.9 °C 70.9 °F /  21.6 °C 30.03in /  1016.8hPa WNW 4.0mph /  6.4km/h 5.0mph /  8km/h 82% 0.00in /  0mm
13:32 76.8 °F /  24.9 °C 70.5 °F /  21.4 °C 30.03in /  1016.8hPa West 2.0mph /  3.2km/h 9.0mph /  14.5km/h 81% 0.00in /  0mm
13:37 76.7 °F /  24.8 °C 70.8 °F /  21.6 °C 30.03in /  1016.8hPa WNW 2.0mph /  3.2km/h 5.0mph /  8km/h 82% 0.00in /  0mm
13:42 77.0 °F /  25 °C 70.7 °F /  21.5 °C 30.03in /  1016.8hPa WSW 3.0mph /  4.8km/h 6.0mph /  9.7km/h 81% 0.00in /  0mm
13:47 77.2 °F /  25.1 °C 70.6 °F /  21.4 °C 30.03in /  1016.8hPa WSW 4.0mph /  6.4km/h 6.0mph /  9.7km/h 80% 0.00in /  0mm
13:52 77.3 °F /  25.2 °C 70.7 °F /  21.5 °C 30.03in /  1016.8hPa WNW 2.0mph /  3.2km/h 7.0mph /  11.3km/h 80% 0.00in /  0mm
13:57 78.0 °F /  25.6 °C 71.3 °F /  21.8 °C 30.03in /  1016.8hPa WSW 4.0mph /  6.4km/h 6.0mph /  9.7km/h 80% 0.00in /  0mm
14:02 78.3 °F /  25.7 °C 70.5 °F /  21.4 °C 30.03in /  1016.8hPa NNW 1.0mph /  1.6km/h 5.0mph /  8km/h 77% 0.00in /  0mm
14:07 78.9 °F /  26.1 °C 71.5 °F /  21.9 °C 30.03in /  1016.8hPa WSW 6.0mph /  9.7km/h 6.0mph /  9.7km/h 78% 0.00in /  0mm
14:12 78.9 °F /  26.1 °C 71.1 °F /  21.7 °C 30.03in /  1016.8hPa SW 5.0mph /  8km/h 7.0mph /  11.3km/h 77% 0.00in /  0mm
14:17 79.0 °F /  26.1 °C 70.8 °F /  21.6 °C 30.03in /  1016.8hPa SW 1.0mph /  1.6km/h 6.0mph /  9.7km/h 76% 0.00in /  0mm
14:22 79.7 °F /  26.5 °C 71.1 °F /  21.7 °C 30.03in /  1016.8hPa WSW 3.0mph /  4.8km/h 7.0mph /  11.3km/h 75% 0.00in /  0mm
14:27 79.4 °F /  26.3 °C 70.8 °F /  21.6 °C 30.03in /  1016.8hPa Calm   4.0mph /  6.4km/h 75% 0.00in /  0mm
14:32 79.5 °F /  26.4 °C 70.9 °F /  21.6 °C 30.02in /  1016.5hPa WSW 4.0mph /  6.4km/h 7.0mph /  11.3km/h 75% 0.00in /  0mm
14:37 79.8 °F /  26.6 °C 71.6 °F /  22 °C 30.02in /  1016.5hPa South 2.0mph /  3.2km/h 3.0mph /  4.8km/h 76% 0.00in /  0mm
14:43 80.8 °F /  27.1 °C 72.5 °F /  22.5 °C 30.02in /  1016.5hPa WNW 3.0mph /  4.8km/h 7.0mph /  11.3km/h 76% 0.00in /  0mm
14:48 80.6 °F /  27 °C 72.3 °F /  22.4 °C 30.02in /  1016.5hPa West 2.0mph /  3.2km/h 4.0mph /  6.4km/h 76% 0.00in /  0mm
14:53 80.8 °F /  27.1 °C 72.5 °F /  22.5 °C 30.02in /  1016.5hPa West 3.0mph /  4.8km/h 4.0mph /  6.4km/h 76% 0.00in /  0mm
14:58 80.9 °F /  27.2 °C 71.0 °F /  21.7 °C 30.02in /  1016.5hPa NE 3.0mph /  4.8km/h 5.0mph /  8km/h 72% 0.00in /  0mm
15:03 81.4 °F /  27.4 °C 72.3 °F /  22.4 °C 30.02in /  1016.5hPa West 3.0mph /  4.8km/h 6.0mph /  9.7km/h 74% 0.00in /  0mm
15:09 81.7 °F /  27.6 °C 71.0 °F /  21.7 °C 30.01in /  1016.1hPa SSW 3.0mph /  4.8km/h 5.0mph /  8km/h 70% 0.00in /  0mm
15:14 81.6 °F /  27.6 °C 70.9 °F /  21.6 °C 30.01in /  1016.1hPa SW 4.0mph /  6.4km/h 7.0mph /  11.3km/h 70% 0.00in /  0mm
15:19 81.7 °F /  27.6 °C 71.4 °F /  21.9 °C 30.00in /  1015.8hPa SW 5.0mph /  8km/h 6.0mph /  9.7km/h 71% 0.00in /  0mm
15:24 81.8 °F /  27.7 °C 71.1 °F /  21.7 °C 30.00in /  1015.8hPa SSE 5.0mph /  8km/h 7.0mph /  11.3km/h 70% 0.00in /  0mm
15:29 82.1 °F /  27.8 °C 71.8 °F /  22.1 °C 30.00in /  1015.8hPa SW 4.0mph /  6.4km/h 9.0mph /  14.5km/h 71% 0.00in /  0mm
15:34 82.3 °F /  27.9 °C 72.0 °F /  22.2 °C 29.99in /  1015.5hPa WNW 3.0mph /  4.8km/h 6.0mph /  9.7km/h 71% 0.00in /  0mm
15:39 82.3 °F /  27.9 °C 72.0 °F /  22.2 °C 29.99in /  1015.5hPa SSW 3.0mph /  4.8km/h 7.0mph /  11.3km/h 71% 0.00in /  0mm
15:44 82.4 °F /  28 °C 70.8 °F /  21.6 °C 29.99in /  1015.5hPa SW 5.0mph /  8km/h 9.0mph /  14.5km/h 68% 0.00in /  0mm
15:50 82.1 °F /  27.8 °C 71.8 °F /  22.1 °C 29.99in /  1015.5hPa SW 1.0mph /  1.6km/h 6.0mph /  9.7km/h 71% 0.00in /  0mm
15:55 81.8 °F /  27.7 °C 71.1 °F /  21.7 °C 29.99in /  1015.5hPa West 5.0mph /  8km/h 7.0mph /  11.3km/h 70% 0.00in /  0mm
16:00 81.7 °F /  27.6 °C 71.4 °F /  21.9 °C 29.99in /  1015.5hPa SSW 6.0mph /  9.7km/h 7.0mph /  11.3km/h 71% 0.00in /  0mm
16:05 81.4 °F /  27.4 °C 71.1 °F /  21.7 °C 29.98in /  1015.1hPa SSE 1.0mph /  1.6km/h 4.0mph /  6.4km/h 71% 0.00in /  0mm
16:10 82.4 °F /  28 °C 71.6 °F /  22 °C 29.98in /  1015.1hPa SW 3.0mph /  4.8km/h 9.0mph /  14.5km/h 70% 0.00in /  0mm
16:15 82.2 °F /  27.9 °C 70.2 °F /  21.2 °C 29.98in /  1015.1hPa SW 6.0mph /  9.7km/h 7.0mph /  11.3km/h 67% 0.00in /  0mm
16:20 82.2 °F /  27.9 °C 70.6 °F /  21.4 °C 29.98in /  1015.1hPa WSW 5.0mph /  8km/h 8.0mph /  12.9km/h 68% 0.00in /  0mm
16:25 82.3 °F /  27.9 °C 70.7 °F /  21.5 °C 29.97in /  1014.8hPa SW 3.0mph /  4.8km/h 7.0mph /  11.3km/h 68% 0.00in /  0mm
16:30 82.3 °F /  27.9 °C 69.8 °F /  21 °C 29.97in /  1014.8hPa West 4.0mph /  6.4km/h 8.0mph /  12.9km/h 66% 0.00in /  0mm
16:35 82.5 °F /  28.1 °C 72.2 °F /  22.3 °C 29.97in /  1014.8hPa SSE 4.0mph /  6.4km/h 7.0mph /  11.3km/h 71% 0.00in /  0mm
16:40 83.1 °F /  28.4 °C 70.1 °F /  21.2 °C 29.97in /  1014.8hPa West 2.0mph /  3.2km/h 8.0mph /  12.9km/h 65% 0.00in /  0mm
16:41 83.1 °F /  28.4 °C 71.0 °F /  21.7 °C 29.97in /  1014.8hPa SW 6.0mph /  9.7km/h 8.0mph /  12.9km/h 67% 0.00in /  0mm
16:46 83.1 °F /  28.4 °C 69.7 °F /  20.9 °C 29.96in /  1014.4hPa SW 3.0mph /  4.8km/h 8.0mph /  12.9km/h 64% 0.00in /  0mm
16:51 82.8 °F /  28.2 °C 71.2 °F /  21.8 °C 29.96in /  1014.4hPa SW 2.0mph /  3.2km/h 6.0mph /  9.7km/h 68% 0.00in /  0mm
16:56 83.1 °F /  28.4 °C 71.4 °F /  21.9 °C 29.96in /  1014.4hPa SW 7.0mph /  11.3km/h 9.0mph /  14.5km/h 68% 0.00in /  0mm
17:01 82.8 °F /  28.2 °C 69.8 °F /  21 °C 29.95in /  1014.1hPa West 3.0mph /  4.8km/h 7.0mph /  11.3km/h 65% 0.00in /  0mm
17:06 82.6 °F /  28.1 °C 69.2 °F /  20.7 °C 29.95in /  1014.1hPa West 7.0mph /  11.3km/h 8.0mph /  12.9km/h 64% 0.00in /  0mm
17:11 82.9 °F /  28.3 °C 69.5 °F /  20.8 °C 29.95in /  1014.1hPa WSW 6.0mph /  9.7km/h 9.0mph /  14.5km/h 64% 0.00in /  0mm
17:16 82.7 °F /  28.2 °C 69.8 °F /  21 °C 29.95in /  1014.1hPa WSW 6.0mph /  9.7km/h 8.0mph /  12.9km/h 65% 0.00in /  0mm
17:21 82.7 °F /  28.2 °C 69.8 °F /  21 °C 29.95in /  1014.1hPa SW 6.0mph /  9.7km/h 8.0mph /  12.9km/h 65% 0.00in /  0mm
17:26 82.7 °F /  28.2 °C 69.8 °F /  21 °C 29.95in /  1014.1hPa WNW 4.0mph /  6.4km/h 6.0mph /  9.7km/h 65% 0.00in /  0mm
17:31 82.8 °F /  28.2 °C 70.3 °F /  21.3 °C 29.95in /  1014.1hPa SSW 5.0mph /  8km/h 8.0mph /  12.9km/h 66% 0.00in /  0mm
17:36 83.0 °F /  28.3 °C 70.5 °F /  21.4 °C 29.95in /  1014.1hPa West 6.0mph /  9.7km/h 6.0mph /  9.7km/h 66% 0.00in /  0mm
17:41 82.9 °F /  28.3 °C 69.5 °F /  20.8 °C 29.95in /  1014.1hPa West 4.0mph /  6.4km/h 7.0mph /  11.3km/h 64% 0.00in /  0mm
17:46 83.0 °F /  28.3 °C 70.9 °F /  21.6 °C 29.95in /  1014.1hPa SW 4.0mph /  6.4km/h 4.0mph /  6.4km/h 67% 0.00in /  0mm
17:51 83.0 °F /  28.3 °C 69.1 °F /  20.6 °C 29.94in /  1013.8hPa WSW 5.0mph /  8km/h 8.0mph /  12.9km/h 63% 0.00in /  0mm
17:56 82.9 °F /  28.3 °C 70.4 °F /  21.3 °C 29.94in /  1013.8hPa SSW 5.0mph /  8km/h 8.0mph /  12.9km/h 66% 0.00in /  0mm
18:02 83.0 °F /  28.3 °C 70.5 °F /  21.4 °C 29.93in /  1013.4hPa West 3.0mph /  4.8km/h 9.0mph /  14.5km/h 66% 0.00in /  0mm
18:07 83.1 °F /  28.4 °C 71.0 °F /  21.7 °C 29.94in /  1013.8hPa SSW 5.0mph /  8km/h 8.0mph /  12.9km/h 67% 0.00in /  0mm
18:12 83.1 °F /  28.4 °C 70.1 °F /  21.2 °C 29.94in /  1013.8hPa SSE 5.0mph /  8km/h 7.0mph /  11.3km/h 65% 0.00in /  0mm
18:17 83.2 °F /  28.4 °C 70.2 °F /  21.2 °C 29.94in /  1013.8hPa South 3.0mph /  4.8km/h 7.0mph /  11.3km/h 65% 0.00in /  0mm
18:18 83.2 °F /  28.4 °C 69.8 °F /  21 °C 29.94in /  1013.8hPa South 2.0mph /  3.2km/h 5.0mph /  8km/h 64% 0.00in /  0mm
18:23 83.1 °F /  28.4 °C 70.6 °F /  21.4 °C 29.94in /  1013.8hPa WSW 2.0mph /  3.2km/h 5.0mph /  8km/h 66% 0.00in /  0mm
18:28 83.0 °F /  28.3 °C 70.0 °F /  21.1 °C 29.94in /  1013.8hPa West 3.0mph /  4.8km/h 6.0mph /  9.7km/h 65% 0.00in /  0mm
18:33 83.2 °F /  28.4 °C 71.1 °F /  21.7 °C 29.94in /  1013.8hPa WSW 4.0mph /  6.4km/h 5.0mph /  8km/h 67% 0.00in /  0mm
18:38 83.2 °F /  28.4 °C 71.1 °F /  21.7 °C 29.94in /  1013.8hPa West 4.0mph /  6.4km/h 5.0mph /  8km/h 67% 0.00in /  0mm
18:43 82.4 °F /  28 °C 70.3 °F /  21.3 °C 29.94in /  1013.8hPa West 1.0mph /  1.6km/h 6.0mph /  9.7km/h 67% 0.00in /  0mm
18:48 82.6 °F /  28.1 °C 71.0 °F /  21.7 °C 29.94in /  1013.8hPa WSW 3.0mph /  4.8km/h 4.0mph /  6.4km/h 68% 0.00in /  0mm
18:53 82.9 °F /  28.3 °C 70.8 °F /  21.6 °C 29.94in /  1013.8hPa SSW 2.0mph /  3.2km/h 6.0mph /  9.7km/h 67% 0.00in /  0mm
18:58 82.9 °F /  28.3 °C 71.3 °F /  21.8 °C 29.94in /  1013.8hPa SSW 6.0mph /  9.7km/h 6.0mph /  9.7km/h 68% 0.00in /  0mm
19:03 82.8 °F /  28.2 °C 71.2 °F /  21.8 °C 29.94in /  1013.8hPa WSW 3.0mph /  4.8km/h 5.0mph /  8km/h 68% 0.00in /  0mm
19:08 82.7 °F /  28.2 °C 70.6 °F /  21.4 °C 29.94in /  1013.8hPa SW 4.0mph /  6.4km/h 6.0mph /  9.7km/h 67% 0.00in /  0mm
19:13 82.4 °F /  28 °C 71.2 °F /  21.8 °C 29.93in /  1013.4hPa SW 4.0mph /  6.4km/h 5.0mph /  8km/h 69% 0.00in /  0mm
19:18 82.1 °F /  27.8 °C 70.9 °F /  21.6 °C 29.93in /  1013.4hPa SW 4.0mph /  6.4km/h 4.0mph /  6.4km/h 69% 0.00in /  0mm
19:23 82.0 °F /  27.8 °C 70.8 °F /  21.6 °C 29.93in /  1013.4hPa WSW 3.0mph /  4.8km/h 4.0mph /  6.4km/h 69% 0.00in /  0mm
19:28 81.9 °F /  27.7 °C 71.2 °F /  21.8 °C 29.93in /  1013.4hPa WSW 4.0mph /  6.4km/h 5.0mph /  8km/h 70% 0.00in /  0mm
19:33 81.6 °F /  27.6 °C 70.9 °F /  21.6 °C 29.92in /  1013.1hPa SW 5.0mph /  8km/h 7.0mph /  11.3km/h 70% 0.00in /  0mm
19:38 81.2 °F /  27.3 °C 70.9 °F /  21.6 °C 29.92in /  1013.1hPa SW 2.0mph /  3.2km/h 4.0mph /  6.4km/h 71% 0.00in /  0mm
19:43 81.1 °F /  27.3 °C 70.8 °F /  21.6 °C 29.92in /  1013.1hPa SW 3.0mph /  4.8km/h 5.0mph /  8km/h 71% 0.00in /  0mm
19:48 80.7 °F /  27.1 °C 71.2 °F /  21.8 °C 29.92in /  1013.1hPa SW 1.0mph /  1.6km/h 3.0mph /  4.8km/h 73% 0.00in /  0mm
19:53 80.5 °F /  26.9 °C 71.1 °F /  21.7 °C 29.92in /  1013.1hPa SSW 3.0mph /  4.8km/h 4.0mph /  6.4km/h 73% 0.00in /  0mm
19:58 80.5 °F /  26.9 °C 71.1 °F /  21.7 °C 29.92in /  1013.1hPa SSW 2.0mph /  3.2km/h 4.0mph /  6.4km/h 73% 0.00in /  0mm
20:03 80.3 °F /  26.8 °C 70.9 °F /  21.6 °C 29.92in /  1013.1hPa South 5.0mph /  8km/h 5.0mph /  8km/h 73% 0.00in /  0mm
20:08 80.1 °F /  26.7 °C 70.7 °F /  21.5 °C 29.92in /  1013.1hPa South 2.0mph /  3.2km/h 6.0mph /  9.7km/h 73% 0.00in /  0mm
20:13 79.7 °F /  26.5 °C 70.7 °F /  21.5 °C 29.92in /  1013.1hPa SSW 3.0mph /  4.8km/h 7.0mph /  11.3km/h 74% 0.00in /  0mm
20:18 79.1 °F /  26.2 °C 70.5 °F /  21.4 °C 29.92in /  1013.1hPa South 2.0mph /  3.2km/h 6.0mph /  9.7km/h 75% 0.00in /  0mm
20:23 78.6 °F /  25.9 °C 70.4 °F /  21.3 °C 29.92in /  1013.1hPa South 3.0mph /  4.8km/h 7.0mph /  11.3km/h 76% 0.00in /  0mm
20:28 78.1 °F /  25.6 °C 70.3 °F /  21.3 °C 29.92in /  1013.1hPa South 3.0mph /  4.8km/h 6.0mph /  9.7km/h 77% 0.00in /  0mm
20:33 77.7 °F /  25.4 °C 70.3 °F /  21.3 °C 29.92in /  1013.1hPa SSW 2.0mph /  3.2km/h 5.0mph /  8km/h 78% 0.00in /  0mm
20:38 77.4 °F /  25.2 °C 70.0 °F /  21.1 °C 29.92in /  1013.1hPa South 2.0mph /  3.2km/h 4.0mph /  6.4km/h 78% 0.00in /  0mm
20:43 77.0 °F /  25 °C 70.0 °F /  21.1 °C 29.92in /  1013.1hPa SSW 1.0mph /  1.6km/h 5.0mph /  8km/h 79% 0.00in /  0mm
20:48 76.6 °F /  24.8 °C 70.0 °F /  21.1 °C 29.92in /  1013.1hPa SW 3.0mph /  4.8km/h 5.0mph /  8km/h 80% 0.00in /  0mm
20:53 76.2 °F /  24.6 °C 69.9 °F /  21.1 °C 29.92in /  1013.1hPa SW 3.0mph /  4.8km/h 3.0mph /  4.8km/h 81% 0.00in /  0mm
20:59 76.0 °F /  24.4 °C 69.8 °F /  21 °C 29.92in /  1013.1hPa South 2.0mph /  3.2km/h 4.0mph /  6.4km/h 81% 0.00in /  0mm
21:04 75.7 °F /  24.3 °C 69.8 °F /  21 °C 29.92in /  1013.1hPa South 2.0mph /  3.2km/h 2.0mph /  3.2km/h 82% 0.00in /  0mm
21:09 75.5 °F /  24.2 °C 69.6 °F /  20.9 °C 29.92in /  1013.1hPa South 2.0mph /  3.2km/h 2.0mph /  3.2km/h 82% 0.00in /  0mm
21:14 75.4 °F /  24.1 °C 69.5 °F /  20.8 °C 29.92in /  1013.1hPa SSW 1.0mph /  1.6km/h 3.0mph /  4.8km/h 82% 0.00in /  0mm
21:19 75.2 °F /  24 °C 69.7 °F /  20.9 °C 29.92in /  1013.1hPa SE 1.0mph /  1.6km/h 2.0mph /  3.2km/h 83% 0.00in /  0mm
21:24 74.8 °F /  23.8 °C 69.7 °F /  20.9 °C 29.92in /  1013.1hPa SSE 1.0mph /  1.6km/h 2.0mph /  3.2km/h 84% 0.00in /  0mm
21:29 74.3 °F /  23.5 °C 69.2 °F /  20.7 °C 29.92in /  1013.1hPa SE 1.0mph /  1.6km/h 1.0mph /  1.6km/h 84% 0.00in /  0mm
21:34 74.0 °F /  23.3 °C 69.6 °F /  20.9 °C 29.93in /  1013.4hPa SE 2.0mph /  3.2km/h 3.0mph /  4.8km/h 86% 0.00in /  0mm
21:39 74.0 °F /  23.3 °C 69.6 °F /  20.9 °C 29.92in /  1013.1hPa ESE 3.0mph /  4.8km/h 4.0mph /  6.4km/h 86% 0.00in /  0mm
21:44 74.0 °F /  23.3 °C 69.6 °F /  20.9 °C 29.92in /  1013.1hPa SE 4.0mph /  6.4km/h 4.0mph /  6.4km/h 86% 0.00in /  0mm
21:49 73.9 °F /  23.3 °C 69.4 °F /  20.8 °C 29.93in /  1013.4hPa ESE 3.0mph /  4.8km/h 4.0mph /  6.4km/h 86% 0.00in /  0mm
21:54 73.9 °F /  23.3 °C 69.4 °F /  20.8 °C 29.93in /  1013.4hPa SE 2.0mph /  3.2km/h 5.0mph /  8km/h 86% 0.00in /  0mm
21:59 73.8 °F /  23.2 °C 69.3 °F /  20.7 °C 29.93in /  1013.4hPa SE 2.0mph /  3.2km/h 4.0mph /  6.4km/h 86% 0.00in /  0mm
22:04 73.5 °F /  23.1 °C 69.1 °F /  20.6 °C 29.93in /  1013.4hPa SE 2.0mph /  3.2km/h 3.0mph /  4.8km/h 86% 0.00in /  0mm
22:09 73.1 °F /  22.8 °C 69.0 °F /  20.6 °C 29.93in /  1013.4hPa SE 4.0mph /  6.4km/h 5.0mph /  8km/h 87% 0.00in /  0mm
22:14 72.9 °F /  22.7 °C 68.8 °F /  20.4 °C 29.93in /  1013.4hPa SE 3.0mph /  4.8km/h 4.0mph /  6.4km/h 87% 0.00in /  0mm
22:19 72.6 °F /  22.6 °C 68.8 °F /  20.4 °C 29.93in /  1013.4hPa SSE 3.0mph /  4.8km/h 4.0mph /  6.4km/h 88% 0.00in /  0mm
22:24 72.4 °F /  22.4 °C 69.0 °F /  20.6 °C 29.93in /  1013.4hPa South 2.0mph /  3.2km/h 3.0mph /  4.8km/h 89% 0.00in /  0mm
22:29 72.3 °F /  22.4 °C 68.9 °F /  20.5 °C 29.93in /  1013.4hPa SSE 2.0mph /  3.2km/h 4.0mph /  6.4km/h 89% 0.00in /  0mm
22:34 72.2 °F /  22.3 °C 68.8 °F /  20.4 °C 29.93in /  1013.4hPa SE 1.0mph /  1.6km/h 3.0mph /  4.8km/h 89% 0.00in /  0mm
22:39 72.2 °F /  22.3 °C 69.1 °F /  20.6 °C 29.93in /  1013.4hPa South 2.0mph /  3.2km/h 2.0mph /  3.2km/h 90% 0.00in /  0mm
22:44 72.2 °F /  22.3 °C 69.1 °F /  20.6 °C 29.93in /  1013.4hPa South 1.0mph /  1.6km/h 3.0mph /  4.8km/h 90% 0.00in /  0mm
22:49 72.0 °F /  22.2 °C 68.9 °F /  20.5 °C 29.93in /  1013.4hPa SSE 2.0mph /  3.2km/h 3.0mph /  4.8km/h 90% 0.00in /  0mm
22:55 71.7 °F /  22.1 °C 68.6 °F /  20.3 °C 29.93in /  1013.4hPa SE 1.0mph /  1.6km/h 2.0mph /  3.2km/h 90% 0.00in /  0mm
23:00 71.5 °F /  21.9 °C 68.4 °F /  20.2 °C 29.93in /  1013.4hPa SE 1.0mph /  1.6km/h 1.0mph /  1.6km/h 90% 0.00in /  0mm
23:05 71.2 °F /  21.8 °C 68.4 °F /  20.2 °C 29.93in /  1013.4hPa SE 1.0mph /  1.6km/h 1.0mph /  1.6km/h 91% 0.00in /  0mm
23:10 71.1 °F /  21.7 °C 68.3 °F /  20.2 °C 29.93in /  1013.4hPa Calm   2.0mph /  3.2km/h 91% 0.00in /  0mm
23:15 71.1 °F /  21.7 °C 68.3 °F /  20.2 °C 29.93in /  1013.4hPa South 1.0mph /  1.6km/h 2.0mph /  3.2km/h 91% 0.00in /  0mm
23:20 71.0 °F /  21.7 °C 68.2 °F /  20.1 °C 29.93in /  1013.4hPa SSE 1.0mph /  1.6km/h 1.0mph /  1.6km/h 91% 0.00in /  0mm
23:23 70.9 °F /  21.6 °C 68.2 °F /  20.1 °C 29.93in /  1013.4hPa SE 1.0mph /  1.6km/h 1.0mph /  1.6km/h 91% 0.00in /  0mm
23:28 70.8 °F /  21.6 °C 68.1 °F /  20.1 °C 29.93in /  1013.4hPa South 1.0mph /  1.6km/h 2.0mph /  3.2km/h 91% 0.00in /  0mm
23:33 70.7 °F /  21.5 °C 68.3 °F /  20.2 °C 29.93in /  1013.4hPa South 1.0mph /  1.6km/h 2.0mph /  3.2km/h 92% 0.00in /  0mm
23:38 70.8 °F /  21.6 °C 68.4 °F /  20.2 °C 29.93in /  1013.4hPa South 1.0mph /  1.6km/h 2.0mph /  3.2km/h 92% 0.00in /  0mm
23:43 70.7 °F /  21.5 °C 68.3 °F /  20.2 °C 29.93in /  1013.4hPa South 3.0mph /  4.8km/h 3.0mph /  4.8km/h 92% 0.00in /  0mm
23:48 70.7 °F /  21.5 °C 68.3 °F /  20.2 °C 29.93in /  1013.4hPa South 2.0mph /  3.2km/h 3.0mph /  4.8km/h 92% 0.00in /  0mm
23:53 70.8 °F /  21.6 °C 68.4 °F /  20.2 °C 29.93in /  1013.4hPa SSE 2.0mph /  3.2km/h 4.0mph /  6.4km/h 92% 0.00in /  0mm
23:58 70.8 °F /  21.6 °C 68.1 °F /  20.1 °C 29.93in /  1013.4hPa SW 4.0mph /  6.4km/h 4.0mph /  6.4km/h 91% 0.00in /  0mm
Compliments of Weather Underground